createdAt,value
2018-12-11T00:01:09.292Z,3.00
2018-12-11T00:03:40.362Z,2.90
2018-12-11T00:06:09.412Z,3.00
2018-12-11T00:08:38.600Z,3.00
2018-12-11T00:11:07.722Z,2.90
2018-12-11T00:13:36.818Z,2.90
2018-12-11T00:16:05.863Z,2.90
2018-12-11T00:18:34.966Z,2.90
2018-12-11T00:21:04.061Z,2.90
2018-12-11T00:23:33.165Z,2.90
2018-12-11T00:26:02.281Z,3.00
2018-12-11T00:28:31.443Z,3.00
2018-12-11T00:31:00.482Z,2.90
2018-12-11T00:33:29.577Z,2.90
2018-12-11T00:35:58.719Z,3.00
2018-12-11T00:38:27.840Z,3.00
2018-12-11T00:40:56.934Z,3.00
2018-12-11T00:43:26.081Z,3.00
2018-12-11T00:45:55.127Z,2.90
2018-12-11T00:48:24.295Z,2.90
2018-12-11T00:50:53.471Z,2.90
2018-12-11T00:53:22.557Z,2.90
2018-12-11T00:55:51.597Z,2.90
2018-12-11T00:58:20.842Z,2.90
2018-12-11T01:00:49.911Z,2.90
2018-12-11T01:03:19.003Z,2.90
2018-12-11T01:05:48.005Z,2.90
2018-12-11T01:08:17.118Z,2.90
2018-12-11T01:10:46.315Z,2.80
2018-12-11T01:13:15.390Z,2.80
2018-12-11T01:15:44.402Z,2.80
2018-12-11T01:18:13.480Z,2.80
2018-12-11T01:20:43.236Z,2.80
2018-12-11T01:23:12.466Z,2.90
2018-12-11T01:25:41.525Z,2.80
2018-12-11T01:28:10.607Z,2.90
2018-12-11T01:30:39.858Z,2.90
2018-12-11T01:33:08.929Z,2.80
2018-12-11T01:35:38.021Z,2.80
2018-12-11T01:38:07.127Z,2.70
2018-12-11T01:40:36.230Z,2.70
2018-12-11T01:43:05.369Z,2.60
2018-12-11T01:45:34.418Z,2.60
2018-12-11T01:48:03.587Z,2.50
2018-12-11T01:50:32.926Z,2.50
2018-12-11T01:53:01.959Z,2.40
2018-12-11T01:55:31.077Z,2.40
2018-12-11T01:58:00.160Z,2.40
2018-12-11T02:00:29.237Z,2.30
2018-12-11T02:02:58.251Z,2.40
2018-12-11T02:05:27.389Z,2.40
2018-12-11T02:07:56.454Z,2.40
2018-12-11T02:10:25.520Z,2.40
2018-12-11T02:12:54.567Z,2.50
2018-12-11T02:15:23.697Z,2.50
2018-12-11T02:17:52.702Z,2.50
2018-12-11T02:20:21.814Z,2.50
2018-12-11T02:22:50.870Z,2.50
2018-12-11T02:25:19.937Z,2.50
2018-12-11T02:27:49.048Z,2.40
2018-12-11T02:30:18.066Z,2.40
2018-12-11T02:32:47.091Z,2.40
2018-12-11T02:35:16.093Z,2.30
2018-12-11T02:37:45.143Z,2.30
2018-12-11T02:40:14.294Z,2.30
2018-12-11T02:42:43.455Z,2.20
2018-12-11T02:45:12.506Z,2.10
2018-12-11T02:47:41.583Z,2.00
2018-12-11T02:50:10.615Z,1.90
2018-12-11T02:52:39.711Z,1.90
2018-12-11T02:55:08.954Z,1.80
2018-12-11T02:57:38.033Z,1.70
2018-12-11T03:00:08.218Z,1.70
2018-12-11T03:02:39.543Z,1.70
2018-12-11T03:05:08.633Z,1.70
2018-12-11T03:07:37.763Z,1.70
2018-12-11T03:10:06.882Z,1.70
2018-12-11T03:12:35.901Z,1.70
2018-12-11T03:15:05.117Z,1.70
2018-12-11T03:17:34.151Z,1.70
2018-12-11T03:20:03.278Z,1.80
2018-12-11T03:22:32.321Z,1.80
2018-12-11T03:25:01.446Z,1.90
2018-12-11T03:27:30.886Z,1.90
2018-12-11T03:29:59.954Z,2.00
2018-12-11T03:32:28.985Z,2.00
2018-12-11T03:34:58.142Z,2.00
2018-12-11T03:37:27.237Z,2.00
2018-12-11T03:39:56.285Z,2.00
2018-12-11T03:42:25.627Z,2.00
2018-12-11T03:44:54.641Z,2.00
2018-12-11T03:47:23.741Z,2.10
2018-12-11T03:49:52.847Z,2.10
2018-12-11T03:52:21.952Z,2.10
2018-12-11T03:54:51.087Z,2.10
2018-12-11T03:57:20.375Z,2.10
2018-12-11T03:59:49.562Z,2.20
2018-12-11T04:02:18.557Z,2.10
2018-12-11T04:04:47.658Z,2.10
2018-12-11T04:07:16.671Z,2.10
2018-12-11T04:09:45.749Z,2.20
2018-12-11T04:12:15.446Z,2.10
2018-12-11T04:14:44.771Z,2.20
2018-12-11T04:17:13.927Z,2.10
2018-12-11T04:19:43.066Z,2.20
2018-12-11T04:22:12.186Z,2.20
2018-12-11T04:24:41.188Z,2.20
2018-12-11T04:27:12.261Z,2.20
2018-12-11T04:29:41.342Z,2.20
2018-12-11T04:32:10.314Z,2.20
2018-12-11T04:34:39.411Z,2.20
2018-12-11T04:37:08.531Z,2.20
2018-12-11T04:39:37.790Z,2.20
2018-12-11T04:42:06.833Z,2.20
2018-12-11T04:44:35.918Z,2.30
2018-12-11T04:47:05.305Z,2.30
2018-12-11T04:49:34.303Z,2.30
2018-12-11T04:52:03.402Z,2.30
2018-12-11T04:54:32.436Z,2.30
2018-12-11T04:57:01.480Z,2.30
2018-12-11T04:59:30.663Z,2.40
2018-12-11T05:01:59.649Z,2.30
2018-12-11T05:04:28.701Z,2.30
2018-12-11T05:06:57.814Z,2.30
2018-12-11T05:09:26.939Z,2.30
2018-12-11T05:11:56.001Z,2.30
2018-12-11T05:14:25.024Z,2.30
2018-12-11T05:16:54.458Z,2.30
2018-12-11T05:19:23.664Z,2.30
2018-12-11T05:21:52.857Z,2.30
2018-12-11T05:24:21.873Z,2.30
2018-12-11T05:26:51.089Z,2.30
2018-12-11T05:29:20.321Z,2.30
2018-12-11T05:31:49.361Z,2.30
2018-12-11T05:34:18.410Z,2.40
2018-12-11T05:36:47.407Z,2.40
2018-12-11T05:39:16.609Z,2.40
2018-12-11T05:41:45.614Z,2.50
2018-12-11T05:44:14.595Z,2.50
2018-12-11T05:46:43.826Z,2.40
2018-12-11T05:49:12.894Z,2.40
2018-12-11T05:51:41.967Z,2.30
2018-12-11T05:54:11.030Z,2.30
2018-12-11T05:56:40.159Z,2.30
2018-12-11T05:59:09.225Z,2.20
2018-12-11T06:01:38.256Z,2.30
2018-12-11T06:04:07.365Z,2.20
2018-12-11T06:06:36.369Z,2.20
2018-12-11T06:09:07.909Z,2.20
2018-12-11T06:11:37.115Z,2.20
2018-12-11T06:14:06.310Z,2.20
2018-12-11T06:16:35.494Z,2.30
2018-12-11T06:19:04.549Z,2.30
2018-12-11T06:21:33.627Z,2.30
2018-12-11T06:24:02.653Z,2.30
2018-12-11T06:26:31.709Z,2.30
2018-12-11T06:29:00.747Z,2.30
2018-12-11T06:31:29.778Z,2.30
2018-12-11T06:33:58.821Z,2.30
2018-12-11T06:36:28.415Z,2.30
2018-12-11T06:38:57.413Z,2.30
2018-12-11T06:41:26.461Z,2.30
2018-12-11T06:43:55.523Z,2.30
2018-12-11T06:46:24.609Z,2.30
2018-12-11T06:48:53.714Z,2.30
2018-12-11T06:51:22.891Z,2.30
2018-12-11T06:53:52.044Z,2.30
2018-12-11T06:56:21.069Z,2.30
2018-12-11T06:58:50.234Z,2.40
2018-12-11T07:01:19.479Z,2.40
2018-12-11T07:03:48.527Z,2.40
2018-12-11T07:06:17.622Z,2.40
2018-12-11T07:08:46.653Z,2.40
2018-12-11T07:11:15.771Z,2.40
2018-12-11T07:13:44.966Z,2.40
2018-12-11T07:16:14.280Z,2.40
2018-12-11T07:18:43.360Z,2.50
2018-12-11T07:21:12.425Z,2.50
2018-12-11T07:23:41.472Z,2.50
2018-12-11T07:26:10.514Z,2.50
2018-12-11T07:28:39.672Z,2.50
2018-12-11T07:31:08.827Z,2.50
2018-12-11T07:33:37.897Z,2.50
2018-12-11T07:36:07.028Z,2.50
2018-12-11T07:38:36.122Z,2.50
2018-12-11T07:41:05.130Z,2.60
2018-12-11T07:43:34.136Z,2.60
2018-12-11T07:46:03.168Z,2.60
2018-12-11T07:48:32.265Z,2.70
2018-12-11T07:51:01.317Z,2.70
2018-12-11T07:53:30.480Z,2.70
2018-12-11T07:56:00.289Z,2.80
2018-12-11T07:58:29.550Z,2.80
2018-12-11T08:00:58.753Z,2.80
2018-12-11T08:03:27.823Z,2.80
2018-12-11T08:05:56.953Z,2.80
2018-12-11T08:08:26.062Z,2.80
2018-12-11T08:10:55.152Z,2.80
2018-12-11T08:13:24.223Z,2.90
2018-12-11T08:15:53.290Z,2.90
2018-12-11T08:18:22.345Z,2.90
2018-12-11T08:20:51.407Z,3.00
2018-12-11T08:23:21.738Z,3.00
2018-12-11T08:25:50.780Z,3.00
2018-12-11T08:28:19.852Z,3.10
2018-12-11T08:30:48.860Z,3.10
2018-12-11T08:33:17.887Z,3.20
2018-12-11T08:35:47.001Z,3.20
2018-12-11T08:38:16.124Z,3.20
2018-12-11T08:40:45.223Z,3.20
2018-12-11T08:43:14.229Z,3.30
2018-12-11T08:45:43.301Z,3.30
2018-12-11T08:48:12.437Z,3.30
2018-12-11T08:50:41.502Z,3.30
2018-12-11T08:53:10.703Z,3.40
2018-12-11T08:55:39.794Z,3.40
2018-12-11T08:58:08.884Z,3.50
2018-12-11T09:00:38.062Z,3.50
2018-12-11T09:03:07.157Z,3.50
2018-12-11T09:05:36.160Z,3.50
2018-12-11T09:08:05.280Z,3.60
2018-12-11T09:10:34.470Z,3.70
2018-12-11T09:13:03.557Z,3.80
2018-12-11T09:15:34.085Z,3.80
2018-12-11T09:18:03.227Z,3.90
2018-12-11T09:20:34.224Z,4.00
2018-12-11T09:23:03.245Z,4.10
2018-12-11T09:25:32.288Z,4.20
2018-12-11T09:28:01.276Z,4.20
2018-12-11T09:30:30.398Z,4.20
2018-12-11T09:32:59.428Z,4.20
2018-12-11T09:35:28.529Z,4.20
2018-12-11T09:37:57.718Z,4.20
2018-12-11T09:40:26.760Z,4.20
2018-12-11T09:42:55.821Z,4.20
2018-12-11T09:45:24.814Z,4.20
2018-12-11T09:47:53.892Z,4.20
2018-12-11T09:50:22.905Z,4.30
2018-12-11T09:52:51.957Z,4.30
2018-12-11T09:55:21.057Z,4.40
2018-12-11T09:57:50.121Z,4.40
2018-12-11T10:00:22.377Z,4.30
2018-12-11T10:02:50.366Z,4.30
2018-12-11T10:05:19.605Z,4.20
2018-12-11T10:07:48.682Z,4.20
2018-12-11T10:10:17.714Z,4.20
2018-12-11T10:12:46.827Z,4.20
2018-12-11T10:15:15.906Z,4.10
2018-12-11T10:17:44.921Z,4.10
2018-12-11T10:20:14.337Z,4.10
2018-12-11T10:22:43.393Z,4.10
2018-12-11T10:25:12.537Z,4.10
2018-12-11T10:27:41.641Z,4.10
2018-12-11T10:30:10.949Z,4.00
2018-12-11T10:32:40.198Z,4.00
2018-12-11T10:35:09.261Z,4.00
2018-12-11T10:37:38.347Z,4.00
2018-12-11T10:40:07.396Z,4.10
2018-12-11T10:42:37.606Z,4.10
2018-12-11T10:45:06.687Z,4.10
2018-12-11T10:47:35.851Z,4.10
2018-12-11T10:50:07.760Z,4.20
2018-12-11T10:52:36.796Z,4.20
2018-12-11T10:55:05.875Z,4.30
2018-12-11T10:57:34.961Z,4.30
2018-12-11T11:00:04.671Z,4.30
2018-12-11T11:02:36.828Z,4.30
2018-12-11T11:05:05.897Z,4.30
2018-12-11T11:07:35.383Z,4.30
2018-12-11T11:10:04.789Z,4.30
2018-12-11T11:12:33.810Z,4.30
2018-12-11T11:15:02.816Z,4.20
2018-12-11T11:17:32.115Z,4.30
2018-12-11T11:20:01.186Z,4.30
2018-12-11T11:22:30.853Z,4.30
2018-12-11T11:24:59.876Z,4.30
2018-12-11T11:27:28.942Z,4.40
2018-12-11T11:29:57.996Z,4.40
2018-12-11T11:32:27.176Z,4.40
2018-12-11T11:34:56.209Z,4.40
2018-12-11T11:37:25.470Z,4.30
2018-12-11T11:39:54.583Z,4.40
2018-12-11T11:42:23.985Z,4.40
2018-12-11T11:44:53.447Z,4.50
2018-12-11T11:47:23.745Z,4.60
2018-12-11T11:49:52.807Z,4.70
2018-12-11T11:52:21.817Z,4.80
2018-12-11T11:54:50.854Z,4.80
2018-12-11T11:57:19.947Z,4.80
2018-12-11T11:59:49.827Z,4.70
2018-12-11T12:02:18.933Z,4.70
2018-12-11T12:04:48.032Z,4.60
2018-12-11T12:07:17.059Z,4.50
2018-12-11T12:09:46.142Z,4.40
2018-12-11T12:12:15.173Z,4.20
2018-12-11T12:14:49.015Z,4.10
2018-12-11T12:17:15.329Z,4.00
2018-12-11T12:19:44.432Z,4.00
2018-12-11T12:22:13.474Z,4.00
2018-12-11T12:24:42.581Z,4.00
2018-12-11T12:27:11.649Z,4.00
2018-12-11T12:29:40.765Z,4.00
2018-12-11T12:32:10.918Z,4.10
2018-12-11T12:34:39.955Z,4.10
2018-12-11T12:37:09.071Z,4.10
2018-12-11T12:39:38.334Z,4.20
2018-12-11T12:42:07.604Z,4.20
2018-12-11T12:44:36.801Z,4.20
2018-12-11T12:47:05.894Z,4.30
2018-12-11T12:49:35.034Z,4.30
2018-12-11T12:52:04.142Z,4.20
2018-12-11T12:54:33.391Z,4.20
2018-12-11T12:57:02.409Z,4.10
2018-12-11T12:59:31.614Z,4.10
2018-12-11T13:02:00.680Z,4.00
2018-12-11T13:04:29.789Z,3.90
2018-12-11T13:06:58.775Z,3.90
2018-12-11T13:09:27.801Z,3.80
2018-12-11T13:11:56.857Z,3.80
2018-12-11T13:14:25.943Z,3.60
2018-12-11T13:16:54.965Z,3.60
2018-12-11T13:19:24.087Z,3.60
2018-12-11T13:21:53.135Z,3.50
2018-12-11T13:24:22.293Z,3.50
2018-12-11T13:26:51.473Z,3.50
2018-12-11T13:29:20.510Z,3.50
2018-12-11T13:31:49.585Z,3.50
2018-12-11T13:34:18.625Z,3.50
2018-12-11T13:36:47.675Z,3.50
2018-12-11T13:39:16.764Z,3.50
2018-12-11T13:41:45.833Z,3.40
2018-12-11T13:44:15.212Z,3.40
2018-12-11T13:46:44.513Z,3.30
2018-12-11T13:49:13.558Z,3.30
2018-12-11T13:51:42.792Z,3.30
2018-12-11T13:54:11.912Z,3.20
2018-12-11T13:56:40.975Z,3.10
2018-12-11T13:59:10.070Z,3.10
2018-12-11T14:01:39.144Z,3.00
2018-12-11T14:04:08.216Z,3.00
2018-12-11T14:06:37.238Z,3.00
2018-12-11T14:09:12.913Z,2.90
2018-12-11T14:11:42.096Z,2.90
2018-12-11T14:14:11.335Z,2.80
2018-12-11T14:16:40.470Z,2.90
2018-12-11T14:19:09.510Z,2.90
2018-12-11T14:21:38.701Z,2.90
2018-12-11T14:24:07.764Z,2.90
2018-12-11T14:26:36.945Z,2.90
2018-12-11T14:29:06.001Z,2.90
2018-12-11T14:31:35.128Z,2.90
2018-12-11T14:34:04.139Z,2.90
2018-12-11T14:36:33.174Z,2.90
2018-12-11T14:39:06.257Z,2.90
2018-12-11T14:41:37.313Z,2.90
2018-12-11T14:44:06.382Z,2.80
2018-12-11T14:46:35.538Z,2.70
2018-12-11T14:49:04.634Z,2.60
2018-12-11T14:51:33.766Z,2.50
2018-12-11T14:54:02.933Z,2.30
2018-12-11T14:56:31.950Z,2.30
2018-12-11T14:59:01.102Z,2.20
2018-12-11T15:01:30.226Z,2.20
2018-12-11T15:03:59.220Z,2.20
2018-12-11T15:06:29.013Z,2.20
2018-12-11T15:09:02.541Z,2.20
2018-12-11T15:11:33.658Z,2.20
2018-12-11T15:14:02.678Z,2.20
2018-12-11T15:16:31.902Z,2.20
2018-12-11T15:19:01.094Z,2.10
2018-12-11T15:21:30.127Z,2.10
2018-12-11T15:23:59.255Z,2.00
2018-12-11T15:26:28.405Z,1.90
2018-12-11T15:28:57.541Z,1.80
2018-12-11T15:31:26.610Z,1.60
2018-12-11T15:33:55.783Z,1.60
2018-12-11T15:36:24.944Z,1.50
2018-12-11T15:38:54.127Z,1.40
2018-12-11T15:41:23.153Z,1.40
2018-12-11T15:43:52.219Z,1.40
2018-12-11T15:46:21.656Z,1.40
2018-12-11T15:48:50.791Z,1.40
2018-12-11T15:51:20.070Z,1.30
2018-12-11T15:53:49.094Z,1.20
2018-12-11T15:56:18.384Z,1.10
2018-12-11T15:58:47.410Z,0.90
2018-12-11T16:01:16.524Z,0.90
2018-12-11T16:03:45.565Z,0.80
2018-12-11T16:06:14.589Z,0.70
2018-12-11T16:08:43.741Z,0.70
2018-12-11T16:11:12.850Z,0.70
2018-12-11T16:13:41.881Z,0.60
2018-12-11T16:16:10.961Z,0.60
2018-12-11T16:18:40.123Z,0.50
2018-12-11T16:21:09.236Z,0.50
2018-12-11T16:23:38.309Z,0.40
2018-12-11T16:26:07.387Z,0.40
2018-12-11T16:28:36.599Z,0.40
2018-12-11T16:31:05.635Z,0.40
2018-12-11T16:33:34.745Z,0.40
2018-12-11T16:36:03.942Z,0.40
2018-12-11T16:38:32.967Z,0.40
2018-12-11T16:41:02.058Z,0.40
2018-12-11T16:43:31.269Z,0.40
2018-12-11T16:46:00.326Z,0.40
2018-12-11T16:48:29.503Z,0.50
2018-12-11T16:50:58.533Z,0.60
2018-12-11T16:53:27.606Z,0.60
2018-12-11T16:55:56.661Z,0.70
2018-12-11T16:58:25.779Z,0.70
2018-12-11T17:00:54.798Z,0.80
2018-12-11T17:03:23.855Z,0.80
2018-12-11T17:05:53.068Z,0.80
2018-12-11T17:08:22.065Z,0.80
2018-12-11T17:10:51.072Z,0.70
2018-12-11T17:13:20.173Z,0.80
2018-12-11T17:15:49.529Z,0.80
2018-12-11T17:18:18.552Z,0.90
2018-12-11T17:20:48.033Z,0.90
2018-12-11T17:23:17.113Z,1.00
2018-12-11T17:25:46.298Z,1.00
2018-12-11T17:28:15.491Z,1.00
2018-12-11T17:30:44.536Z,1.00
2018-12-11T17:33:13.668Z,0.90
2018-12-11T17:35:43.884Z,1.00
2018-12-11T17:38:14.083Z,1.00
2018-12-11T17:40:43.203Z,1.00
2018-12-11T17:43:12.482Z,1.10
2018-12-11T17:45:41.557Z,1.10
2018-12-11T17:48:10.783Z,1.10
2018-12-11T17:50:40.364Z,1.00
2018-12-11T17:53:09.453Z,1.10
2018-12-11T17:55:38.609Z,1.10
2018-12-11T17:58:08.830Z,1.10
2018-12-11T18:00:38.030Z,1.10
2018-12-11T18:03:08.081Z,1.10
2018-12-11T18:05:37.229Z,1.10
2018-12-11T18:08:06.310Z,1.10
2018-12-11T18:10:35.443Z,1.10
2018-12-11T18:13:04.548Z,1.00
2018-12-11T18:15:33.694Z,1.00
2018-12-11T18:18:02.805Z,1.00
2018-12-11T18:20:32.158Z,1.00
2018-12-11T18:23:01.300Z,1.00
2018-12-11T18:25:30.437Z,1.00
2018-12-11T18:27:59.634Z,1.10
2018-12-11T18:30:28.844Z,1.10
2018-12-11T18:32:59.009Z,1.10
2018-12-11T18:35:29.064Z,1.10
2018-12-11T18:37:58.098Z,1.20
2018-12-11T18:40:27.230Z,1.20
2018-12-11T18:42:56.591Z,1.20
2018-12-11T18:45:25.780Z,1.20
2018-12-11T18:47:54.915Z,1.20
2018-12-11T18:50:24.107Z,1.20
2018-12-11T18:52:53.260Z,1.20
2018-12-11T18:55:22.333Z,1.20
2018-12-11T18:57:51.711Z,1.20
2018-12-11T19:00:20.856Z,1.20
2018-12-11T19:02:50.013Z,1.20
2018-12-11T19:05:20.505Z,1.30
2018-12-11T19:07:51.345Z,1.30
2018-12-11T19:10:21.485Z,1.20
2018-12-11T19:12:50.633Z,1.30
2018-12-11T19:15:19.789Z,1.30
2018-12-11T19:17:49.266Z,1.30
2018-12-11T19:20:18.463Z,1.30
2018-12-11T19:22:47.777Z,1.30
2018-12-11T19:25:19.717Z,1.30
2018-12-11T19:27:48.924Z,1.30
2018-12-11T19:30:18.045Z,1.30
2018-12-11T19:32:49.058Z,1.20
2018-12-11T19:35:18.997Z,1.10
2018-12-11T19:37:50.123Z,1.10
2018-12-11T19:40:21.150Z,1.10
2018-12-11T19:42:50.382Z,1.10
2018-12-11T19:45:19.582Z,1.10
2018-12-11T19:47:48.593Z,1.10
2018-12-11T19:50:17.904Z,1.10
2018-12-11T19:52:46.945Z,1.10
2018-12-11T19:55:16.025Z,1.10
2018-12-11T19:57:45.142Z,1.10
2018-12-11T20:00:14.163Z,1.00
2018-12-11T20:02:43.914Z,1.20
2018-12-11T20:05:13.089Z,1.20
2018-12-11T20:07:42.377Z,1.20
2018-12-11T20:10:16.442Z,1.20
2018-12-11T20:12:45.486Z,1.20
2018-12-11T20:15:14.618Z,1.20
2018-12-11T20:17:43.735Z,1.20
2018-12-11T20:20:22.871Z,1.20
2018-12-11T20:22:51.965Z,1.20
2018-12-11T20:25:21.220Z,1.30
2018-12-11T20:27:50.421Z,1.30
2018-12-11T20:30:19.527Z,1.30
2018-12-11T20:32:48.678Z,1.20
2018-12-11T20:35:17.709Z,1.20
2018-12-11T20:37:46.903Z,1.10
2018-12-11T20:40:16.053Z,1.10
2018-12-11T20:42:45.191Z,1.10
2018-12-11T20:45:14.465Z,1.10
2018-12-11T20:47:43.619Z,1.10
2018-12-11T20:50:12.640Z,1.10
2018-12-11T20:52:41.662Z,1.10
2018-12-11T20:55:11.002Z,1.20
2018-12-11T20:57:40.121Z,1.20
2018-12-11T21:00:10.737Z,1.20
2018-12-11T21:02:40.014Z,1.30
2018-12-11T21:05:09.307Z,1.30
2018-12-11T21:07:38.469Z,1.30
2018-12-11T21:10:10.141Z,1.20
2018-12-11T21:12:39.257Z,1.20
2018-12-11T21:15:08.850Z,1.10
2018-12-11T21:17:39.096Z,1.10
2018-12-11T21:20:08.421Z,1.20
2018-12-11T21:22:37.810Z,1.20
2018-12-11T21:25:06.897Z,1.20
2018-12-11T21:27:36.103Z,1.20
2018-12-11T21:30:06.722Z,1.20
2018-12-11T21:32:35.964Z,1.20
2018-12-11T21:35:05.954Z,1.20
2018-12-11T21:37:35.001Z,1.20
2018-12-11T21:40:04.573Z,1.20
2018-12-11T21:42:33.620Z,1.20
2018-12-11T21:45:02.728Z,1.20
2018-12-11T21:47:31.886Z,1.20
2018-12-11T21:50:01.061Z,1.30
2018-12-11T21:52:31.642Z,1.30
2018-12-11T21:55:00.743Z,1.30
2018-12-11T21:57:29.989Z,1.30
2018-12-11T21:59:59.070Z,1.20
2018-12-11T22:02:28.126Z,1.20
2018-12-11T22:04:57.212Z,1.20
2018-12-11T22:07:26.398Z,1.20
2018-12-11T22:09:55.496Z,1.20
2018-12-11T22:12:24.862Z,1.20
2018-12-11T22:14:53.953Z,1.20
2018-12-11T22:17:23.102Z,1.30
2018-12-11T22:19:52.149Z,1.30
2018-12-11T22:22:21.228Z,1.30
2018-12-11T22:24:50.234Z,1.30
2018-12-11T22:27:19.237Z,1.30
2018-12-11T22:29:48.384Z,1.40
2018-12-11T22:32:17.454Z,1.30
2018-12-11T22:34:46.502Z,1.30
2018-12-11T22:37:15.541Z,1.30
2018-12-11T22:39:44.554Z,1.30
2018-12-11T22:42:13.553Z,1.30
2018-12-11T22:44:42.573Z,1.30
2018-12-11T22:47:11.628Z,1.30
2018-12-11T22:49:40.688Z,1.30
2018-12-11T22:52:09.683Z,1.30
2018-12-11T22:54:38.875Z,1.40
2018-12-11T22:57:07.892Z,1.40
2018-12-11T22:59:36.974Z,1.40
2018-12-11T23:02:06.149Z,1.40
2018-12-11T23:04:35.149Z,1.30
2018-12-11T23:07:04.298Z,1.30
2018-12-11T23:09:33.319Z,1.30
2018-12-11T23:12:02.525Z,1.30
2018-12-11T23:14:31.636Z,1.30
2018-12-11T23:17:00.667Z,1.30
2018-12-11T23:19:29.825Z,1.30
2018-12-11T23:21:59.893Z,1.30
2018-12-11T23:24:28.973Z,1.30
2018-12-11T23:26:58.097Z,1.30
2018-12-11T23:29:27.177Z,1.20
2018-12-11T23:31:56.403Z,1.20
2018-12-11T23:34:25.768Z,1.30
2018-12-11T23:36:54.882Z,1.40
2018-12-11T23:39:25.384Z,1.40
2018-12-11T23:41:54.492Z,1.30
2018-12-11T23:44:23.585Z,1.30
2018-12-11T23:46:52.846Z,1.40
2018-12-11T23:49:22.952Z,1.40
2018-12-11T23:51:52.071Z,1.30
2018-12-11T23:54:21.091Z,1.30
2018-12-11T23:56:50.165Z,1.30
2018-12-11T23:59:19.339Z,1.30
